createdAt,value
2023-02-24T00:01:28.590Z,22.47
2023-02-24T00:05:02.273Z,22.48
2023-02-24T00:08:24.123Z,22.49
2023-02-24T00:11:49.238Z,22.51
2023-02-24T00:15:11.224Z,22.54
2023-02-24T00:18:33.611Z,22.55
2023-02-24T00:21:55.658Z,22.56
2023-02-24T00:25:27.128Z,22.57
2023-02-24T00:28:48.950Z,22.57
2023-02-24T00:32:13.631Z,22.58
2023-02-24T00:35:35.807Z,22.58
2023-02-24T00:39:00.314Z,22.59
2023-02-24T00:42:23.018Z,22.59
2023-02-24T00:45:56.661Z,22.60
2023-02-24T00:49:20.943Z,22.60
2023-02-24T00:52:43.315Z,22.61
2023-02-24T00:56:40.816Z,22.62
2023-02-24T01:00:39.371Z,22.61
2023-02-24T01:04:11.531Z,22.62
2023-02-24T01:07:33.664Z,22.63
2023-02-24T01:11:17.635Z,22.66
2023-02-24T01:14:39.895Z,22.65
2023-02-24T01:18:01.955Z,22.67
2023-02-24T01:25:02.671Z,22.68
2023-02-24T01:28:24.466Z,22.69
2023-02-24T01:31:48.651Z,22.69
2023-02-24T01:35:14.603Z,22.70
2023-02-24T01:38:37.107Z,22.71
2023-02-24T01:42:01.594Z,22.71
2023-02-24T01:45:29.100Z,22.72
2023-02-24T01:48:52.346Z,22.71
2023-02-24T01:52:21.003Z,22.72
2023-02-24T01:55:50.087Z,22.72
2023-02-24T01:59:24.655Z,22.72
2023-02-24T02:02:50.662Z,22.72
2023-02-24T02:06:17.806Z,22.73
2023-02-24T02:09:43.609Z,22.73
2023-02-24T02:13:08.804Z,22.74
2023-02-24T02:16:45.958Z,22.75
2023-02-24T02:20:42.819Z,22.74
2023-02-24T02:24:35.533Z,22.72
2023-02-24T02:28:20.651Z,22.72
2023-02-24T02:32:24.891Z,22.72
2023-02-24T02:35:54.575Z,22.71
2023-02-24T02:39:41.337Z,22.73
2023-02-24T02:43:26.792Z,22.73
2023-02-24T02:47:04.696Z,22.74
2023-02-24T02:50:43.302Z,22.75
2023-02-24T02:54:16.192Z,22.76
2023-02-24T02:57:47.294Z,22.76
2023-02-24T03:01:10.189Z,22.78
2023-02-24T03:04:32.153Z,22.80
2023-02-24T03:07:59.110Z,22.82
2023-02-24T03:11:21.379Z,22.84
2023-02-24T03:14:51.540Z,22.86
2023-02-24T03:18:30.025Z,22.88
2023-02-24T03:22:06.283Z,22.88
2023-02-24T03:25:46.637Z,22.89
2023-02-24T03:29:36.537Z,22.91
2023-02-24T03:33:09.949Z,22.92
2023-02-24T03:36:35.338Z,22.94
2023-02-24T03:40:14.883Z,22.96
2023-02-24T03:43:41.573Z,22.97
2023-02-24T03:47:03.641Z,23.00
2023-02-24T03:50:32.139Z,23.01
2023-02-24T03:54:14.574Z,23.03
2023-02-24T04:02:00.397Z,23.04
2023-02-24T04:05:30.825Z,23.06
2023-02-24T04:09:21.841Z,23.08
2023-02-24T04:13:07.566Z,23.09
2023-02-24T04:16:44.466Z,23.11
2023-02-24T04:20:20.642Z,23.13
2023-02-24T04:23:47.912Z,23.14
2023-02-24T04:27:12.139Z,23.16
2023-02-24T04:30:46.199Z,23.18
2023-02-24T04:34:39.511Z,23.19
2023-02-24T04:38:01.862Z,23.20
2023-02-24T04:41:28.007Z,23.22
2023-02-24T04:44:49.876Z,23.25
2023-02-24T04:48:15.013Z,23.26
2023-02-24T04:51:38.347Z,23.27
2023-02-24T04:55:00.140Z,23.29
2023-02-24T04:58:28.055Z,23.29
2023-02-24T05:02:01.385Z,23.30
2023-02-24T05:05:28.140Z,23.30
2023-02-24T05:08:55.664Z,23.31
2023-02-24T05:12:17.532Z,23.33
2023-02-24T05:15:41.849Z,23.33
2023-02-24T05:19:22.450Z,23.35
2023-02-24T05:22:44.286Z,23.34
2023-02-24T05:26:09.147Z,23.35
2023-02-24T05:29:34.230Z,23.36
2023-02-24T05:32:56.446Z,23.38
2023-02-24T05:36:19.501Z,23.39
2023-02-24T05:39:41.433Z,23.40
2023-02-24T05:43:18.854Z,23.41
2023-02-24T05:46:45.967Z,23.42
2023-02-24T05:50:09.417Z,23.43
2023-02-24T05:53:31.592Z,23.44
2023-02-24T05:56:53.453Z,23.45
2023-02-24T06:00:16.692Z,23.48
2023-02-24T06:03:38.564Z,23.49
2023-02-24T06:07:03.712Z,23.50
2023-02-24T06:10:25.832Z,23.51
2023-02-24T06:13:48.082Z,23.52
2023-02-24T06:17:11.975Z,23.54
2023-02-24T06:20:33.985Z,23.56
2023-02-24T06:23:57.713Z,23.58
2023-02-24T06:27:21.718Z,23.59
2023-02-24T06:30:43.866Z,23.61
2023-02-24T06:34:05.862Z,23.62
2023-02-24T06:37:28.334Z,23.64
2023-02-24T06:41:06.316Z,23.66
2023-02-24T06:44:28.123Z,23.67
2023-02-24T06:47:50.854Z,23.70
2023-02-24T06:51:26.835Z,23.72
2023-02-24T06:54:49.762Z,23.73
2023-02-24T06:58:16.580Z,23.75
2023-02-24T07:01:45.562Z,23.77
2023-02-24T07:05:14.560Z,23.78
2023-02-24T07:08:37.768Z,23.79
2023-02-24T07:12:02.699Z,23.81
2023-02-24T07:15:24.854Z,23.83
2023-02-24T07:19:02.755Z,23.85
2023-02-24T07:22:25.356Z,23.87
2023-02-24T07:25:47.424Z,23.89
2023-02-24T07:32:51.041Z,23.93
2023-02-24T07:36:15.087Z,23.96
2023-02-24T07:39:43.565Z,23.99
2023-02-24T07:43:06.635Z,24.02
2023-02-24T07:46:29.468Z,24.05
2023-02-24T07:49:51.333Z,24.09
2023-02-24T07:53:16.598Z,24.15
2023-02-24T07:56:46.128Z,24.19
2023-02-24T08:00:18.086Z,24.21
2023-02-24T08:03:41.546Z,24.13
2023-02-24T08:07:06.003Z,24.20
2023-02-24T08:10:31.256Z,24.24
2023-02-24T08:14:02.715Z,24.27
2023-02-24T08:17:26.780Z,24.29
2023-02-24T08:20:52.509Z,24.32
2023-02-24T08:24:18.283Z,24.35
2023-02-24T08:27:43.199Z,24.39
2023-02-24T08:31:05.858Z,24.42
2023-02-24T08:34:32.052Z,24.43
2023-02-24T08:37:54.917Z,24.45
2023-02-24T08:41:20.097Z,24.46
2023-02-24T08:44:44.583Z,24.45
2023-02-24T08:48:18.417Z,24.45
2023-02-24T08:51:44.142Z,24.44
2023-02-24T08:55:10.737Z,24.45
2023-02-24T08:58:32.697Z,24.45
2023-02-24T09:02:17.756Z,24.45
2023-02-24T09:05:39.776Z,24.47
2023-02-24T09:09:17.551Z,24.50
2023-02-24T09:12:42.344Z,24.52
2023-02-24T09:16:07.487Z,24.52
2023-02-24T09:19:51.594Z,24.52
2023-02-24T09:23:20.277Z,24.51
2023-02-24T09:26:43.825Z,24.53
2023-02-24T09:30:08.304Z,24.54
2023-02-24T09:33:40.311Z,24.56
2023-02-24T09:37:05.873Z,24.57
2023-02-24T09:40:49.008Z,24.59
2023-02-24T09:44:21.715Z,24.60
2023-02-24T09:47:54.968Z,24.63
2023-02-24T09:51:25.763Z,24.66
2023-02-24T09:55:13.608Z,24.67
2023-02-24T09:58:43.739Z,24.66
2023-02-24T10:02:15.566Z,24.66
2023-02-24T10:05:48.494Z,24.67
2023-02-24T10:09:14.349Z,24.67
2023-02-24T10:12:40.229Z,24.68
2023-02-24T10:16:07.824Z,24.69
2023-02-24T10:19:31.196Z,24.68
2023-02-24T10:23:09.833Z,24.66
2023-02-24T10:27:00.755Z,24.66
2023-02-24T10:30:47.231Z,24.65
2023-02-24T10:34:13.580Z,24.66
2023-02-24T10:37:35.710Z,24.69
2023-02-24T10:40:57.777Z,24.72
2023-02-24T10:44:24.323Z,24.75
2023-02-24T10:47:57.799Z,24.79
2023-02-24T10:51:22.373Z,24.81
2023-02-24T10:55:05.207Z,24.82
2023-02-24T10:58:57.369Z,24.81
2023-02-24T11:02:30.252Z,24.82
2023-02-24T11:06:18.957Z,24.84
2023-02-24T11:09:49.624Z,24.85
2023-02-24T11:13:34.939Z,24.87
2023-02-24T11:17:16.381Z,24.90
2023-02-24T11:20:49.929Z,24.96
2023-02-24T11:24:17.085Z,25.01
2023-02-24T11:27:42.022Z,25.03
2023-02-24T11:31:45.308Z,25.05
2023-02-24T11:35:17.775Z,25.06
2023-02-24T11:38:47.029Z,25.10
2023-02-24T11:42:13.723Z,25.12
2023-02-24T11:46:34.671Z,25.12
2023-02-24T11:50:24.678Z,25.14
2023-02-24T11:54:11.741Z,25.30
2023-02-24T11:57:43.794Z,25.50
2023-02-24T12:01:48.648Z,25.66
2023-02-24T12:05:22.310Z,25.80
2023-02-24T12:08:48.235Z,25.92
2023-02-24T12:12:16.295Z,26.05
2023-02-24T12:15:56.751Z,26.14
2023-02-24T12:19:31.389Z,26.29
2023-02-24T12:22:59.374Z,26.60
2023-02-24T12:26:49.388Z,26.75
2023-02-24T12:30:38.853Z,26.68
2023-02-24T12:34:08.651Z,26.58
2023-02-24T12:38:21.842Z,26.68
2023-02-24T12:42:18.669Z,27.05
2023-02-24T12:45:43.668Z,27.34
2023-02-24T12:49:18.062Z,27.38
2023-02-24T12:52:49.759Z,27.29
2023-02-24T12:56:25.728Z,27.25
2023-02-24T12:59:47.891Z,27.34
2023-02-24T13:03:21.630Z,27.56
2023-02-24T13:07:02.492Z,27.74
2023-02-24T13:10:36.686Z,27.59
2023-02-24T13:14:04.681Z,27.38
2023-02-24T13:17:27.431Z,27.28
2023-02-24T13:20:50.812Z,27.33
2023-02-24T13:24:24.043Z,27.50
2023-02-24T13:27:56.072Z,27.54
2023-02-24T13:31:18.281Z,27.55
2023-02-24T13:34:45.022Z,27.50
2023-02-24T13:38:24.689Z,27.39
2023-02-24T13:41:46.761Z,27.30
2023-02-24T13:45:09.577Z,27.24
2023-02-24T13:48:39.940Z,27.24
2023-02-24T13:52:25.071Z,27.38
2023-02-24T13:56:09.995Z,27.48
2023-02-24T14:00:11.550Z,27.49
2023-02-24T14:03:42.478Z,27.45
2023-02-24T14:07:13.256Z,27.43
2023-02-24T14:10:39.202Z,27.43
2023-02-24T14:14:01.006Z,27.42
2023-02-24T14:17:36.288Z,27.39
2023-02-24T14:20:58.543Z,27.37
2023-02-24T14:24:25.123Z,27.38
2023-02-24T14:27:50.080Z,27.53
2023-02-24T14:31:13.450Z,27.51
2023-02-24T14:34:35.318Z,27.34
2023-02-24T14:37:57.949Z,27.27
2023-02-24T14:41:23.628Z,27.23
2023-02-24T14:44:49.389Z,27.12
2023-02-24T14:48:23.171Z,26.97
2023-02-24T14:51:45.611Z,26.86
2023-02-24T14:55:26.691Z,26.81
2023-02-24T14:58:51.384Z,26.73
2023-02-24T15:02:19.633Z,26.64
2023-02-24T15:05:44.611Z,26.54
2023-02-24T15:09:08.104Z,26.41
2023-02-24T15:12:46.173Z,26.02
2023-02-24T15:16:28.858Z,25.49
2023-02-24T15:19:54.716Z,25.03
2023-02-24T15:23:32.864Z,24.67
2023-02-24T15:26:56.675Z,24.33
2023-02-24T15:30:30.665Z,24.03
2023-02-24T15:33:58.016Z,23.68
2023-02-24T15:37:24.752Z,23.52
2023-02-24T15:40:52.916Z,23.40
2023-02-24T15:44:28.174Z,23.33
2023-02-24T15:47:53.738Z,23.29
2023-02-24T15:51:20.840Z,23.23
2023-02-24T15:54:45.866Z,23.16
2023-02-24T15:58:11.780Z,23.11
2023-02-24T16:01:33.677Z,23.14
2023-02-24T16:04:55.403Z,23.28
2023-02-24T16:08:18.524Z,23.50
2023-02-24T16:11:41.089Z,23.73
2023-02-24T16:15:04.294Z,23.91
2023-02-24T16:18:25.952Z,24.06
2023-02-24T16:21:49.772Z,24.20
2023-02-24T16:25:15.367Z,24.35
2023-02-24T16:28:37.164Z,24.46
2023-02-24T16:31:59.106Z,24.57
2023-02-24T16:35:25.900Z,24.67
2023-02-24T16:38:50.856Z,24.78
2023-02-24T16:42:12.909Z,24.86
2023-02-24T16:45:40.268Z,24.91
2023-02-24T16:49:02.771Z,24.95
2023-02-24T16:52:25.895Z,24.97
2023-02-24T16:55:47.675Z,24.96
2023-02-24T16:59:09.467Z,24.96
2023-02-24T17:02:33.625Z,24.95
2023-02-24T17:05:56.256Z,24.92
2023-02-24T17:09:20.518Z,24.91
2023-02-24T17:13:03.588Z,24.87
2023-02-24T17:16:28.073Z,24.76
2023-02-24T17:19:57.528Z,24.71
2023-02-24T17:23:26.018Z,24.69
2023-02-24T17:26:50.682Z,24.67
2023-02-24T17:30:21.683Z,24.64
2023-02-24T17:34:01.175Z,24.62
2023-02-24T17:37:26.578Z,24.57
2023-02-24T17:41:00.152Z,24.53
2023-02-24T17:44:34.439Z,24.50
2023-02-24T17:47:59.485Z,24.47
2023-02-24T17:51:30.810Z,24.43
2023-02-24T17:54:57.172Z,24.40
2023-02-24T17:58:25.417Z,24.38
2023-02-24T18:02:04.087Z,24.34
2023-02-24T18:05:50.892Z,24.32
2023-02-24T18:09:30.142Z,24.28
2023-02-24T18:13:00.858Z,24.26
2023-02-24T18:16:35.593Z,24.24
2023-02-24T18:20:03.241Z,24.21
2023-02-24T18:23:26.493Z,24.20
2023-02-24T18:26:51.976Z,24.19
2023-02-24T18:30:18.959Z,24.16
2023-02-24T18:33:44.675Z,24.15
2023-02-24T18:37:09.273Z,24.13
2023-02-24T18:40:32.231Z,24.11
2023-02-24T18:43:55.121Z,24.10
2023-02-24T18:47:16.808Z,24.08
2023-02-24T18:50:38.572Z,24.06
2023-02-24T18:54:12.749Z,24.04
2023-02-24T18:57:37.143Z,24.01
2023-02-24T19:01:03.987Z,23.98
2023-02-24T19:04:26.911Z,23.96
2023-02-24T19:07:50.589Z,23.93
2023-02-24T19:11:15.095Z,23.91
2023-02-24T19:14:37.686Z,23.88
2023-02-24T19:18:05.076Z,23.86
2023-02-24T19:21:33.634Z,23.83
2023-02-24T19:25:15.945Z,23.79
2023-02-24T19:28:56.837Z,23.75
2023-02-24T19:32:46.977Z,23.73
2023-02-24T19:36:17.443Z,23.69
2023-02-24T19:40:02.909Z,23.66
2023-02-24T19:43:34.772Z,23.62
2023-02-24T19:46:56.643Z,23.59
2023-02-24T19:50:21.430Z,23.56
2023-02-24T20:04:16.282Z,23.46
2023-02-24T20:07:38.947Z,23.45
2023-02-24T20:11:09.741Z,23.42
2023-02-24T20:14:31.650Z,23.40
2023-02-24T20:17:53.477Z,23.37
2023-02-24T20:21:15.276Z,23.34
2023-02-24T20:24:37.225Z,23.32
2023-02-24T20:28:00.482Z,23.29
2023-02-24T20:31:24.358Z,23.27
2023-02-24T20:34:46.289Z,23.24
2023-02-24T20:38:08.044Z,23.22
2023-02-24T20:41:33.476Z,23.20
2023-02-24T20:44:57.373Z,23.18
2023-02-24T20:48:20.649Z,23.16
2023-02-24T20:51:45.894Z,23.15
2023-02-24T20:55:12.641Z,23.14
2023-02-24T20:58:46.358Z,23.13
2023-02-24T21:02:09.417Z,23.12
2023-02-24T21:05:42.296Z,23.12
2023-02-24T21:09:09.571Z,23.12
2023-02-24T21:12:31.448Z,23.11
2023-02-24T21:16:06.844Z,23.11
2023-02-24T21:19:40.479Z,23.10
2023-02-24T21:23:07.534Z,23.09
2023-02-24T21:26:30.172Z,23.10
2023-02-24T21:29:58.449Z,23.10
2023-02-24T21:33:20.886Z,23.10
2023-02-24T21:36:53.945Z,23.11
2023-02-24T21:40:17.856Z,23.12
2023-02-24T21:43:39.609Z,23.14
2023-02-24T21:47:01.313Z,23.14
2023-02-24T21:50:23.757Z,23.15
2023-02-24T21:53:49.360Z,23.16
2023-02-24T21:57:11.086Z,23.16
2023-02-24T22:00:34.345Z,23.17
2023-02-24T22:03:58.017Z,23.17
2023-02-24T22:07:19.856Z,23.17
2023-02-24T22:10:41.685Z,23.17
2023-02-24T22:14:03.952Z,23.17
2023-02-24T22:17:27.903Z,23.17
2023-02-24T22:20:49.505Z,23.15
2023-02-24T22:24:15.041Z,23.15
2023-02-24T22:27:38.050Z,23.14
2023-02-24T22:31:02.016Z,23.14
2023-02-24T22:34:26.188Z,23.13
2023-02-24T22:37:53.895Z,23.12
2023-02-24T22:41:19.310Z,23.12
2023-02-24T22:44:44.477Z,23.11
2023-02-24T22:48:16.425Z,23.11
2023-02-24T22:51:40.590Z,23.10
2023-02-24T22:55:11.981Z,23.10
2023-02-24T22:58:33.953Z,23.09
2023-02-24T23:02:11.710Z,23.08
2023-02-24T23:05:39.748Z,23.08
2023-02-24T23:09:01.815Z,23.09
2023-02-24T23:12:23.981Z,23.08
2023-02-24T23:15:52.497Z,23.08
2023-02-24T23:19:19.569Z,23.08
2023-02-24T23:22:53.187Z,23.08
2023-02-24T23:26:15.439Z,23.09
2023-02-24T23:29:47.494Z,23.08
2023-02-24T23:33:13.047Z,23.08
2023-02-24T23:36:36.004Z,23.08
2023-02-24T23:40:01.629Z,23.09
2023-02-24T23:44:03.806Z,23.09
2023-02-24T23:47:56.022Z,23.06
2023-02-24T23:51:20.605Z,23.01
2023-02-24T23:54:44.861Z,23.00
2023-02-24T23:58:09.769Z,23.00
